Portada
METAR-TAF:

METAR-TAF

Aeroports :

Ningbo, Xina

latitud: 29-49-36N, longitud: 121-27-43E, altitud: 4 m

Observació

L'informe es va fer fa 17 minuts, a les 15:00 UTC
Vent 2 kt del Oest/Sud-Oest
Temperatura 13°C
Humitat 82%
Pressió 1023 hPa
Visibilitat 10 km o més
sense núvols per sota de 1500 mi sense presència de cumulonimbus.

METAR: ZSNB 241500Z 25001MPS CAVOK 13/10 Q1023 NOSIG

Hora: 23:17 (15:17 UTC)

Pronòstic

L'informe es va fer fa 6 hores i 8 minuts, a les 09:09 UTC
Pronòstic vàlid del 24 a les 12 UTC al 25 a les 12 UTC
Vent 8 kt del Est/Sud-Est
Visibilitat: 5000 m
Núvols disperses a una alçada de 4000 ft
boirina

TAF: ZSNB 240909Z 2412/2512 12004MPS 5000 BR SCT040 TX21/2506Z TN10/2421Z

Observacions i pronòstics meteorològics de més de 4000 aeroports (METAR i TAF).

Les estacions disponibles són els punts grocs i vermells al mapa.

Posi el ratolí al punt desitjat per veure el nom de l'estació.

Feu clic per veure les observacions i els pronòstics meteorològics.

Per canviar el mapa: feu clic els botons verds amb una creu de color negre per apropar; al botó verd amb un guió per allunyar la imatge; o en les fletxes verdes per a mapes adjacents.


METAR-TAF: